Pagrindinis puslapis
METAR-TAF:

METAR-TAF

Oro uostai :

Bužumbūra, Burundis

platuma: 03-19S, ilguma: 029-19E, Aukštis: 782 m

METAR: trūkstamas

Laikas: 00:45 (22:45 UTC)

Prognozė

Ataskaita buvo paskelbta 5 valandos ir 45 minutes, ne 17:00 UTC
Prognozė galioja nuo 05 metu 18 UTC su 06 metu 24 UTC
Vėjas 10 kt iš Pietų su gūsio iki 15 kt
Matomumas 10 km arba daugiau
Mažai debesys ne aukštis 3000 ft
Su prošvaistėmis ne aukštis 10000 ft
Tikimybė 30%
tarp TE ir MP UTC
Vėjas kt iš Šiaurės su gūsio iki 15 kt
Matomumas 10 km arba daugiau
Mažai debesys ne aukštis 3500 ft, Liūtiniai kamuoliniai debesys.
Mažai debesys ne aukštis 8000 ft
lietus, perkūnija, lietus

TAF: HBBA 051700Z 0518/0624 00000KT 9999 NSC BECMG0602/0604 36002KT CAVOK BECMG0607/0609 18010G15KT 9999 FEW030 BKN100 PROB30 TEMPO0613/0616 08010G15KT 7000 FEW035CB SHRA OR TSRA BECMG0618/ 0619 00000KT 9999 FEW080

Orai ataskaitas ir orų prognozės (METAR, TAF).

turimą stotys yra geltonos ir raudonos taškus žemėlapyje.

Perkelti pele per norėdami pamatyti stoties vardą.

Tada spustelėkite, norėdami matyti oro stebėjimo ir prognozės.

Norėdami pakeisti žemėlapį: spustelėkite ant žalios mygtukų su juodo kryžiaus žemyn,; žalią mygtuką su brūkšneliu, jei norite nutolinti; arba žalių rodyklių gretimoms žemėlapius.


METAR-TAF: